Time;durP1;ratioP1;P1;durP2;ratioP2;P2;SDS_P1;SDS_P2;PMS_P1;PMS_P2;Temp;Humidity;BMP_temperature;BMP_pressure;BME280_temperature;BME280_humidity;BME280_pressure;Samples;Min_cycle;Max_cycle;Signal;HPM_P1;HPM_P2
2022/07/07 00:02:07;;;;;;;4.82;1.70;;;;;;;;;;5075410;28;20217;-61
2022/07/07 00:04:35;;;;;;;6.05;1.70;;;;;;;;;;5075236;28;20634;-60
2022/07/07 00:07:03;;;;;;;3.05;2.00;;;;;;;;;;5074846;28;20281;-61
2022/07/07 00:09:31;;;;;;;3.70;1.50;;;;;;;;;;5074840;28;20218;-61
2022/07/07 00:11:58;;;;;;;4.68;1.77;;;;;;;;;;5074717;28;20207;-61
2022/07/07 00:14:26;;;;;;;3.55;2.10;;;;;;;;;;5074863;28;20203;-60
2022/07/07 00:16:53;;;;;;;3.15;1.92;;;;;;;;;;5074542;28;20680;-60
2022/07/07 00:19:20;;;;;;;7.82;2.35;;;;;;;;;;5074384;28;20211;-60
2022/07/07 00:21:47;;;;;;;4.65;2.35;;;;;;;;;;5074282;28;20265;-61
2022/07/07 00:24:14;;;;;;;4.03;2.30;;;;;;;;;;5074721;28;20284;-60
2022/07/07 00:26:41;;;;;;;7.70;2.72;;;;;;;;;;5075074;28;20699;-61
2022/07/07 00:29:09;;;;;;;7.10;2.45;;;;;;;;;;5077942;28;20217;-61
2022/07/07 00:31:35;;;;;;;5.90;2.22;;;;;;;;;;5078930;28;20579;-61
2022/07/07 00:34:03;;;;;;;4.80;2.50;;;;;;;;;;5078817;28;20203;-60
2022/07/07 00:36:30;;;;;;;5.90;2.33;;;;;;;;;;5078475;28;20645;-60
2022/07/07 00:38:57;;;;;;;8.30;2.60;;;;;;;;;;5078669;28;20203;-60
2022/07/07 00:41:24;;;;;;;6.60;2.58;;;;;;;;;;5078712;28;20280;-60
2022/07/07 00:44:06;;;;;;;7.25;2.70;;;;;;;;;;5071621;28;20207;-60
2022/07/07 00:46:46;;;;;;;4.32;2.50;;;;;;;;;;5078445;28;20227;-60
2022/07/07 00:49:13;;;;;;;5.38;2.33;;;;;;;;;;5078529;28;20200;-60
2022/07/07 00:51:41;;;;;;;6.68;2.75;;;;;;;;;;5078438;28;20210;-61
2022/07/07 00:54:09;;;;;;;4.13;2.42;;;;;;;;;;5078507;28;20355;-60
2022/07/07 00:56:36;;;;;;;6.45;2.60;;;;;;;;;;5078396;28;20204;-60
2022/07/07 00:59:07;;;;;;;4.22;2.35;;;;;;;;;;5078297;28;20207;-61
2022/07/07 01:01:39;;;;;;;6.07;2.80;;;;;;;;;;5078410;28;20211;-60
2022/07/07 01:04:08;;;;;;;5.10;2.63;;;;;;;;;;5078207;28;20187;-60
2022/07/07 01:06:35;;;;;;;8.57;2.40;;;;;;;;;;5077760;28;20606;-59
2022/07/07 01:09:03;;;;;;;7.32;2.55;;;;;;;;;;5077854;28;20595;-61
2022/07/07 01:11:47;;;;;;;7.45;2.63;;;;;;;;;;5077998;28;20203;-61
2022/07/07 01:14:14;;;;;;;5.10;2.58;;;;;;;;;;5078062;28;20336;-61
2022/07/07 01:16:41;;;;;;;6.82;2.55;;;;;;;;;;5077631;28;20629;-60
2022/07/07 01:19:08;;;;;;;4.50;3.08;;;;;;;;;;5078445;28;20640;-61
2022/07/07 01:21:43;;;;;;;3.40;2.78;;;;;;;;;;5077874;28;20300;-61
2022/07/07 01:24:10;;;;;;;6.82;2.88;;;;;;;;;;5076718;28;20622;-60
2022/07/07 01:26:39;;;;;;;8.68;3.05;;;;;;;;;;5077599;28;20220;-62
2022/07/07 01:29:06;;;;;;;6.43;2.78;;;;;;;;;;5077469;28;20580;-60
2022/07/07 01:31:33;;;;;;;4.65;2.90;;;;;;;;;;5078400;28;20211;-61
2022/07/07 01:34:00;;;;;;;3.58;2.83;;;;;;;;;;5077765;28;20207;-61
2022/07/07 01:36:27;;;;;;;5.88;2.90;;;;;;;;;;5077411;28;20203;-63
2022/07/07 01:38:54;;;;;;;9.25;3.13;;;;;;;;;;5076683;28;20204;-62
2022/07/07 01:41:21;;;;;;;5.10;3.13;;;;;;;;;;5077498;28;20207;-61
2022/07/07 01:43:48;;;;;;;4.68;2.90;;;;;;;;;;5077028;28;20580;-60
2022/07/07 01:46:15;;;;;;;5.25;3.00;;;;;;;;;;5076747;28;20579;-61
2022/07/07 01:48:42;;;;;;;4.15;3.03;;;;;;;;;;5076850;28;20202;-60
2022/07/07 01:51:09;;;;;;;5.28;3.00;;;;;;;;;;5077097;28;20215;-61
2022/07/07 01:53:38;;;;;;;7.43;3.30;;;;;;;;;;5076532;28;20649;-61
2022/07/07 01:56:06;;;;;;;6.82;3.10;;;;;;;;;;5076730;28;20663;-60
2022/07/07 01:58:33;;;;;;;4.13;2.92;;;;;;;;;;5076720;28;20340;-60
2022/07/07 02:01:00;;;;;;;4.82;3.30;;;;;;;;;;5076710;28;20225;-61
2022/07/07 02:03:27;;;;;;;5.68;3.10;;;;;;;;;;5076753;28;20207;-61
2022/07/07 02:05:54;;;;;;;8.43;2.80;;;;;;;;;;5076604;28;20650;-61
2022/07/07 02:08:22;;;;;;;7.05;3.08;;;;;;;;;;5076626;28;20210;-60
2022/07/07 02:13:34;;;;;;;4.97;3.20;;;;;;;;;;5076481;28;20217;-61
2022/07/07 02:16:01;;;;;;;5.07;2.88;;;;;;;;;;5076392;28;20241;-60
2022/07/07 02:18:33;;;;;;;10.10;2.72;;;;;;;;;;5076460;28;20260;-60
2022/07/07 02:21:02;;;;;;;4.43;3.05;;;;;;;;;;5076467;28;20239;-59
2022/07/07 02:23:29;;;;;;;4.75;2.92;;;;;;;;;;5075327;28;20261;-61
2022/07/07 02:25:56;;;;;;;5.28;3.00;;;;;;;;;;5076360;28;20234;-60
2022/07/07 02:28:23;;;;;;;6.90;3.25;;;;;;;;;;5076262;28;20269;-60
2022/07/07 02:30:51;;;;;;;6.88;2.95;;;;;;;;;;5076162;28;20207;-59
2022/07/07 02:33:19;;;;;;;7.45;3.38;;;;;;;;;;5076074;28;20200;-60
2022/07/07 02:35:47;;;;;;;7.53;3.40;;;;;;;;;;5075983;28;20668;-59
2022/07/07 02:38:14;;;;;;;8.73;3.47;;;;;;;;;;5076191;28;20328;-60
2022/07/07 02:40:41;;;;;;;6.00;3.17;;;;;;;;;;5076253;28;20203;-60
2022/07/07 02:43:12;;;;;;;6.22;3.70;;;;;;;;;;5076195;28;20206;-60
2022/07/07 02:45:40;;;;;;;7.35;3.70;;;;;;;;;;5076133;28;20199;-59
2022/07/07 02:48:11;;;;;;;6.45;3.58;;;;;;;;;;5076171;28;20577;-59
2022/07/07 02:50:39;;;;;;;8.13;3.58;;;;;;;;;;5074858;28;20516;-59
2022/07/07 02:53:07;;;;;;;7.60;3.00;;;;;;;;;;5075865;28;20694;-60
2022/07/07 02:55:34;;;;;;;10.50;3.78;;;;;;;;;;5076041;28;20637;-60
2022/07/07 02:58:03;;;;;;;5.93;3.80;;;;;;;;;;5076042;28;20237;-60
2022/07/07 03:00:33;;;;;;;4.78;3.35;;;;;;;;;;5075783;28;20260;-60
2022/07/07 03:03:01;;;;;;;7.90;3.30;;;;;;;;;;5074607;28;20225;-60
2022/07/07 03:05:29;;;;;;;6.53;3.70;;;;;;;;;;5075811;28;20281;-60
2022/07/07 03:07:56;;;;;;;5.22;3.50;;;;;;;;;;5075787;28;20227;-60
2022/07/07 03:10:23;;;;;;;7.20;3.50;;;;;;;;;;5075806;28;20214;-59
2022/07/07 03:12:51;;;;;;;5.53;3.40;;;;;;;;;;5075647;28;20235;-59
2022/07/07 03:15:18;;;;;;;7.65;3.50;;;;;;;;;;5075446;28;20203;-60
2022/07/07 03:17:47;;;;;;;6.15;3.70;;;;;;;;;;5075593;28;20206;-60
2022/07/07 03:20:17;;;;;;;7.00;4.00;;;;;;;;;;5075350;28;20241;-60
2022/07/07 03:22:44;;;;;;;5.80;3.33;;;;;;;;;;5075921;28;20203;-60
2022/07/07 03:25:12;;;;;;;7.32;3.63;;;;;;;;;;5075279;28;20223;-59
2022/07/07 03:27:39;;;;;;;5.47;3.55;;;;;;;;;;5075357;28;20231;-58
2022/07/07 03:30:08;;;;;;;5.10;3.28;;;;;;;;;;5075097;28;20218;-59
2022/07/07 03:32:35;;;;;;;5.07;3.25;;;;;;;;;;5075412;28;20260;-60
2022/07/07 03:35:03;;;;;;;3.55;3.20;;;;;;;;;;5075348;28;20261;-59
2022/07/07 03:37:32;;;;;;;7.60;3.83;;;;;;;;;;5075030;28;20214;-61
2022/07/07 03:39:59;;;;;;;4.13;3.47;;;;;;;;;;5075275;28;20365;-59
2022/07/07 03:42:27;;;;;;;11.77;4.55;;;;;;;;;;5075037;28;20207;-59
2022/07/07 03:44:54;;;;;;;10.40;4.40;;;;;;;;;;5074841;28;20199;-59
2022/07/07 03:47:20;;;;;;;6.35;4.47;;;;;;;;;;5075127;28;20231;-60
2022/07/07 03:49:48;;;;;;;11.75;5.10;;;;;;;;;;5075013;28;20650;-60
2022/07/07 03:52:16;;;;;;;8.18;4.88;;;;;;;;;;5075149;28;20204;-60
2022/07/07 03:54:43;;;;;;;9.77;4.85;;;;;;;;;;5074987;28;20634;-61
2022/07/07 03:57:11;;;;;;;8.20;5.13;;;;;;;;;;5074735;28;20649;-60
2022/07/07 03:59:38;;;;;;;9.13;5.30;;;;;;;;;;5075296;28;20242;-60
2022/07/07 04:02:05;;;;;;;8.20;5.05;;;;;;;;;;5074693;28;20203;-59
2022/07/07 04:04:32;;;;;;;7.25;5.15;;;;;;;;;;5076651;28;20237;-59
2022/07/07 04:06:59;;;;;;;7.90;4.60;;;;;;;;;;5085771;28;20317;-60
2022/07/07 04:09:26;;;;;;;7.95;4.32;;;;;;;;;;5092733;28;20234;-60
2022/07/07 04:11:54;;;;;;;6.65;4.43;;;;;;;;;;5089842;28;20285;-60
2022/07/07 04:14:21;;;;;;;5.82;3.88;;;;;;;;;;5087122;28;20249;-60
2022/07/07 04:16:48;;;;;;;10.02;4.38;;;;;;;;;;5089313;28;20560;-59
2022/07/07 04:19:15;;;;;;;9.25;4.32;;;;;;;;;;5088294;28;20700;-59
2022/07/07 04:21:42;;;;;;;5.30;4.03;;;;;;;;;;5093536;28;20242;-59
2022/07/07 04:24:10;;;;;;;7.95;4.15;;;;;;;;;;5093974;28;20226;-59
2022/07/07 04:26:38;;;;;;;6.93;4.35;;;;;;;;;;5093831;28;20234;-59
2022/07/07 04:29:05;;;;;;;7.32;4.10;;;;;;;;;;5093997;28;20231;-59
2022/07/07 04:31:32;;;;;;;5.90;4.30;;;;;;;;;;5093876;28;20626;-59
2022/07/07 04:33:59;;;;;;;5.85;4.03;;;;;;;;;;5093221;28;20230;-60
2022/07/07 04:36:26;;;;;;;6.55;4.10;;;;;;;;;;5094172;28;20241;-61
2022/07/07 04:38:53;;;;;;;7.25;3.92;;;;;;;;;;5092762;28;20232;-60
2022/07/07 04:41:21;;;;;;;9.40;4.30;;;;;;;;;;5092343;28;20295;-59
2022/07/07 04:43:47;;;;;;;11.30;4.65;;;;;;;;;;5092932;28;20229;-59
2022/07/07 04:46:14;;;;;;;8.75;4.75;;;;;;;;;;5092612;28;20253;-60
2022/07/07 04:48:42;;;;;;;10.77;4.63;;;;;;;;;;5093147;28;20230;-62
2022/07/07 04:51:09;;;;;;;13.55;4.43;;;;;;;;;;5093055;28;20234;-53
2022/07/07 04:53:35;;;;;;;8.10;3.50;;;;;;;;;;5093657;28;20228;-57
2022/07/07 04:56:04;;;;;;;8.40;3.70;;;;;;;;;;5093400;28;20295;-59
2022/07/07 04:58:31;;;;;;;5.90;3.30;;;;;;;;;;5093388;28;20254;-59
2022/07/07 05:00:57;;;;;;;6.45;3.72;;;;;;;;;;5092747;28;20657;-61
2022/07/07 05:03:27;;;;;;;6.80;3.70;;;;;;;;;;5093092;28;20230;-59
2022/07/07 05:05:55;;;;;;;7.38;3.15;;;;;;;;;;5093100;28;20619;-60
2022/07/07 05:08:22;;;;;;;4.70;3.35;;;;;;;;;;5093388;28;20573;-63
2022/07/07 05:10:50;;;;;;;6.72;3.20;;;;;;;;;;5093453;28;20231;-64
2022/07/07 05:13:17;;;;;;;7.65;3.13;;;;;;;;;;5093515;28;20231;-63
2022/07/07 05:15:43;;;;;;;9.43;3.33;;;;;;;;;;5097660;28;20295;-63
2022/07/07 05:18:11;;;;;;;3.33;1.98;;;;;;;;;;5095458;28;20241;-64
2022/07/07 05:20:38;;;;;;;4.70;2.30;;;;;;;;;;5097038;28;20248;-61
2022/07/07 05:23:04;;;;;;;5.78;2.40;;;;;;;;;;5097141;28;20674;-62
2022/07/07 05:25:32;;;;;;;5.13;2.20;;;;;;;;;;5097367;28;20680;-63
2022/07/07 05:27:59;;;;;;;2.60;2.08;;;;;;;;;;5096922;28;20242;-63
2022/07/07 05:30:26;;;;;;;7.55;2.38;;;;;;;;;;5097030;28;20619;-62
2022/07/07 05:32:53;;;;;;;5.88;2.30;;;;;;;;;;5096555;28;20238;-44
2022/07/07 05:35:20;;;;;;;3.50;2.03;;;;;;;;;;5097042;28;20245;-46
2022/07/07 05:37:47;;;;;;;3.28;1.60;;;;;;;;;;5096725;28;20680;-45
2022/07/07 05:40:14;;;;;;;4.68;1.67;;;;;;;;;;5096892;28;20234;-46
2022/07/07 05:42:41;;;;;;;3.80;1.70;;;;;;;;;;5096965;28;20219;-44
2022/07/07 05:45:09;;;;;;;4.47;1.98;;;;;;;;;;5096703;28;20230;-44
2022/07/07 05:47:37;;;;;;;3.35;1.77;;;;;;;;;;5096132;28;20664;-47
2022/07/07 05:50:05;;;;;;;3.55;1.60;;;;;;;;;;5096082;28;20235;-44
2022/07/07 05:52:32;;;;;;;4.72;1.58;;;;;;;;;;5096605;28;20295;-44
2022/07/07 05:54:59;;;;;;;4.30;1.50;;;;;;;;;;5096433;28;20676;-50
2022/07/07 05:57:26;;;;;;;1.67;1.25;;;;;;;;;;5096651;28;20219;-44
2022/07/07 05:59:53;;;;;;;3.97;1.20;;;;;;;;;;5096529;28;20660;-46
2022/07/07 06:02:20;;;;;;;4.47;1.65;;;;;;;;;;5096027;28;20242;-45
2022/07/07 06:04:49;;;;;;;2.40;1.40;;;;;;;;;;5096138;28;20581;-44
2022/07/07 06:07:22;;;;;;;4.97;1.38;;;;;;;;;;5097749;28;20223;-44
2022/07/07 06:09:49;;;;;;;5.45;1.50;;;;;;;;;;5087375;28;20205;-45
2022/07/07 06:12:16;;;;;;;4.18;1.40;;;;;;;;;;5085964;28;20222;-44
2022/07/07 06:14:43;;;;;;;1.90;1.30;;;;;;;;;;5095481;28;20245;-47
2022/07/07 06:17:10;;;;;;;1.48;1.13;;;;;;;;;;5096081;28;20226;-44
2022/07/07 06:19:37;;;;;;;5.72;1.48;;;;;;;;;;5096099;28;20313;-46
2022/07/07 06:22:04;;;;;;;1.88;1.50;;;;;;;;;;5092013;28;20761;-47
2022/07/07 06:24:31;;;;;;;2.22;1.20;;;;;;;;;;5087337;28;20234;-45
2022/07/07 06:26:58;;;;;;;2.53;1.10;;;;;;;;;;5075320;28;20245;-46
2022/07/07 06:29:25;;;;;;;1.48;1.05;;;;;;;;;;5087980;28;20268;-45
2022/07/07 06:31:52;;;;;;;5.03;1.13;;;;;;;;;;5093199;28;20219;-46
2022/07/07 06:34:19;;;;;;;2.28;1.10;;;;;;;;;;5092219;28;20546;-45
2022/07/07 06:36:46;;;;;;;2.35;0.95;;;;;;;;;;5091549;28;20219;-45
2022/07/07 06:39:13;;;;;;;1.55;1.13;;;;;;;;;;5094330;28;20671;-54
2022/07/07 06:41:40;;;;;;;4.45;1.25;;;;;;;;;;5093986;28;20279;-45
2022/07/07 06:44:11;;;;;;;2.50;0.90;;;;;;;;;;5094350;28;20214;-46
2022/07/07 06:46:41;;;;;;;2.05;0.90;;;;;;;;;;5093979;28;20234;-47
2022/07/07 06:49:09;;;;;;;2.97;1.20;;;;;;;;;;5094301;28;20229;-48
2022/07/07 06:51:37;;;;;;;2.50;1.08;;;;;;;;;;5094129;28;20223;-46
2022/07/07 06:54:03;;;;;;;1.58;0.98;;;;;;;;;;5090362;28;20318;-60
2022/07/07 06:56:31;;;;;;;3.88;1.02;;;;;;;;;;5094048;28;20567;-48
2022/07/07 06:58:58;;;;;;;2.90;0.90;;;;;;;;;;5092073;28;20214;-48
2022/07/07 07:01:25;;;;;;;1.73;1.00;;;;;;;;;;5088627;28;20546;-47
2022/07/07 07:03:54;;;;;;;1.92;1.00;;;;;;;;;;5093537;28;20226;-52
2022/07/07 07:06:21;;;;;;;3.25;1.08;;;;;;;;;;5085954;28;20252;-51
2022/07/07 07:08:48;;;;;;;2.25;1.17;;;;;;;;;;5091663;28;20232;-50
2022/07/07 07:11:15;;;;;;;4.35;1.00;;;;;;;;;;5091608;28;20219;-54
2022/07/07 07:13:42;;;;;;;2.35;1.00;;;;;;;;;;5089318;28;20317;-51
2022/07/07 07:16:09;;;;;;;2.38;1.00;;;;;;;;;;5088954;28;20226;-51
2022/07/07 07:18:37;;;;;;;2.50;1.00;;;;;;;;;;5092418;28;20291;-47
2022/07/07 07:21:04;;;;;;;2.17;0.77;;;;;;;;;;5093412;28;20280;-52
2022/07/07 07:23:31;;;;;;;2.28;0.90;;;;;;;;;;5093429;28;20211;-49
2022/07/07 07:25:58;;;;;;;1.48;0.90;;;;;;;;;;5088878;28;20215;-50
2022/07/07 07:28:25;;;;;;;1.63;0.90;;;;;;;;;;5090685;28;20321;-50
2022/07/07 07:30:52;;;;;;;1.52;0.73;;;;;;;;;;5093036;28;20215;-46
2022/07/07 07:33:19;;;;;;;1.38;0.77;;;;;;;;;;5093292;28;20239;-49
2022/07/07 07:35:47;;;;;;;4.45;0.95;;;;;;;;;;5084157;28;20215;-52
2022/07/07 07:38:14;;;;;;;1.60;0.70;;;;;;;;;;5092526;28;20222;-49
2022/07/07 07:40:41;;;;;;;2.40;0.80;;;;;;;;;;5090445;28;20356;-48
2022/07/07 07:43:08;;;;;;;2.17;1.00;;;;;;;;;;5090293;28;20226;-49
2022/07/07 07:45:36;;;;;;;1.40;0.88;;;;;;;;;;5093150;28;20343;-47
2022/07/07 07:48:04;;;;;;;2.97;0.80;;;;;;;;;;5092974;28;20226;-45
2022/07/07 07:50:32;;;;;;;0.90;0.75;;;;;;;;;;5093236;28;20210;-46
2022/07/07 07:53:03;;;;;;;1.95;1.00;;;;;;;;;;5092034;28;20530;-47
2022/07/07 07:55:31;;;;;;;2.53;0.95;;;;;;;;;;5090351;28;20645;-49
2022/07/07 07:57:58;;;;;;;4.00;0.90;;;;;;;;;;5091840;28;20218;-45
2022/07/07 08:00:25;;;;;;;2.70;0.85;;;;;;;;;;5093341;28;20225;-46
2022/07/07 08:02:52;;;;;;;3.60;1.00;;;;;;;;;;5092485;28;20260;-48
2022/07/07 08:05:19;;;;;;;2.72;0.80;;;;;;;;;;5093209;28;20233;-45
2022/07/07 08:07:46;;;;;;;1.08;0.70;;;;;;;;;;5092020;28;20276;-46
2022/07/07 08:10:15;;;;;;;1.95;0.95;;;;;;;;;;5091891;28;20536;-46
2022/07/07 08:12:43;;;;;;;2.22;0.80;;;;;;;;;;5092098;28;20696;-47
2022/07/07 08:15:11;;;;;;;5.10;0.73;;;;;;;;;;5093222;28;20226;-52
2022/07/07 08:17:39;;;;;;;2.03;1.00;;;;;;;;;;5092802;28;20226;-45
2022/07/07 08:20:07;;;;;;;2.70;0.65;;;;;;;;;;5090151;28;20215;-48
2022/07/07 08:22:34;;;;;;;1.40;0.73;;;;;;;;;;5089548;28;20275;-48
2022/07/07 08:25:02;;;;;;;0.93;0.50;;;;;;;;;;5093093;28;20261;-47
2022/07/07 08:27:29;;;;;;;2.20;0.55;;;;;;;;;;5094049;28;20303;-45
2022/07/07 08:29:55;;;;;;;1.85;0.70;;;;;;;;;;5093881;28;20227;-45
2022/07/07 08:32:23;;;;;;;3.58;0.60;;;;;;;;;;5094209;28;20226;-48
2022/07/07 08:34:50;;;;;;;2.22;0.60;;;;;;;;;;5093517;28;20230;-47
2022/07/07 08:37:17;;;;;;;0.60;0.55;;;;;;;;;;5094076;28;20219;-49
2022/07/07 08:39:44;;;;;;;1.30;0.63;;;;;;;;;;5092432;27;20227;-48
2022/07/07 08:42:12;;;;;;;2.22;0.70;;;;;;;;;;5073318;28;20557;-50
2022/07/07 08:44:39;;;;;;;1.48;0.60;;;;;;;;;;5088052;28;20242;-50
2022/07/07 08:47:06;;;;;;;1.73;0.50;;;;;;;;;;5089045;28;20567;-48
2022/07/07 08:49:33;;;;;;;2.47;0.60;;;;;;;;;;5097458;28;20249;-49
2022/07/07 08:52:01;;;;;;;1.58;0.50;;;;;;;;;;5097231;28;20317;-47
2022/07/07 08:54:28;;;;;;;1.55;0.68;;;;;;;;;;5094905;28;20679;-48
2022/07/07 08:56:55;;;;;;;5.13;0.73;;;;;;;;;;5092561;28;20280;-48
2022/07/07 08:59:22;;;;;;;1.27;0.60;;;;;;;;;;5094724;28;20230;-48
2022/07/07 09:01:59;;;;;;;2.05;0.70;;;;;;;;;;5092711;28;20247;-48
2022/07/07 09:04:26;;;;;;;2.63;0.60;;;;;;;;;;5085030;28;20334;-49
2022/07/07 09:06:57;;;;;;;2.67;0.63;;;;;;;;;;5090643;28;20265;-52
2022/07/07 09:09:49;;;;;;;0.93;0.43;;;;;;;;;;5097246;28;20295;-48
2022/07/07 09:12:18;;;;;;;1.55;0.60;;;;;;;;;;5094111;28;20231;-47
2022/07/07 09:14:49;;;;;;;2.03;0.60;;;;;;;;;;5097323;28;20227;-48
2022/07/07 09:17:29;;;;;;;4.90;0.60;;;;;;;;;;5097548;28;20238;-47
2022/07/07 09:20:08;;;;;;;1.85;0.75;;;;;;;;;;5084096;28;20239;-47
2022/07/07 09:22:53;;;;;;;2.13;0.70;;;;;;;;;;5076676;28;20226;-51
2022/07/07 09:25:29;;;;;;;1.83;0.70;;;;;;;;;;5084519;28;20287;-48
2022/07/07 09:28:06;;;;;;;2.25;0.70;;;;;;;;;;5111567;28;20299;-48
2022/07/07 09:30:45;;;;;;;1.45;0.50;;;;;;;;;;5097131;28;20250;-49
2022/07/07 09:33:25;;;;;;;2.05;0.60;;;;;;;;;;5097388;28;20226;-48
2022/07/07 09:38:41;;;;;;;1.17;0.50;;;;;;;;;;5096582;28;20668;-53
2022/07/07 09:41:13;;;;;;;1.17;0.73;;;;;;;;;;5096837;28;20226;-48
2022/07/07 09:43:53;;;;;;;3.30;0.50;;;;;;;;;;5096424;28;20284;-49
2022/07/07 09:46:22;;;;;;;2.33;0.30;;;;;;;;;;5096945;28;20238;-50
2022/07/07 09:48:54;;;;;;;5.00;2.45;;;;;;;;;;5096681;28;20238;-53
2022/07/07 09:51:29;;;;;;;5.88;0.70;;;;;;;;;;5096594;28;20226;-47
2022/07/07 09:54:10;;;;;;;1.52;0.60;;;;;;;;;;5096269;28;20238;-48
2022/07/07 09:56:42;;;;;;;1.90;0.70;;;;;;;;;;5096072;28;20241;-53
2022/07/07 09:59:11;;;;;;;1.33;0.70;;;;;;;;;;5096166;28;20313;-47
2022/07/07 10:01:41;;;;;;;1.80;0.60;;;;;;;;;;5096121;28;20230;-46
2022/07/07 10:04:10;;;;;;;1.08;0.50;;;;;;;;;;5096539;28;20295;-47
2022/07/07 10:06:40;;;;;;;2.38;0.63;;;;;;;;;;5096533;28;20226;-46
2022/07/07 10:09:18;;;;;;;1.00;0.40;;;;;;;;;;5095934;28;20238;-50
2022/07/07 10:11:50;;;;;;;1.02;0.63;;;;;;;;;;5095626;28;20226;-46
2022/07/07 10:14:44;;;;;;;4.47;0.65;;;;;;;;;;5096434;28;20238;-49
2022/07/07 10:17:12;;;;;;;3.20;0.70;;;;;;;;;;5093016;28;20230;-48
2022/07/07 10:19:39;;;;;;;1.98;0.50;;;;;;;;;;5096187;28;20234;-47
2022/07/07 10:22:07;;;;;;;1.35;0.43;;;;;;;;;;5095638;28;20555;-47
2022/07/07 10:24:35;;;;;;;2.97;0.60;;;;;;;;;;5112380;28;20287;-48
2022/07/07 10:27:04;;;;;;;1.42;0.50;;;;;;;;;;5095441;28;20234;-47
2022/07/07 10:29:44;;;;;;;1.00;0.40;;;;;;;;;;5096466;28;20238;-47
2022/07/07 10:32:17;;;;;;;1.52;0.60;;;;;;;;;;5096804;28;20198;-48
2022/07/07 10:34:52;;;;;;;1.35;0.60;;;;;;;;;;5096577;28;20199;-47
2022/07/07 10:37:21;;;;;;;1.20;0.60;;;;;;;;;;5096516;28;20202;-47
2022/07/07 10:39:50;;;;;;;1.15;0.50;;;;;;;;;;5096564;28;20203;-48
2022/07/07 10:42:17;;;;;;;1.50;0.50;;;;;;;;;;5095730;28;20592;-47
2022/07/07 10:44:50;;;;;;;3.60;1.02;;;;;;;;;;5093296;28;20603;-46
2022/07/07 10:47:17;;;;;;;2.00;0.68;;;;;;;;;;5091129;28;20195;-46
2022/07/07 10:49:46;;;;;;;2.13;0.65;;;;;;;;;;5092075;28;20219;-48
2022/07/07 10:52:21;;;;;;;1.77;0.70;;;;;;;;;;5090226;28;20199;-46
2022/07/07 10:54:52;;;;;;;1.55;0.50;;;;;;;;;;5083836;28;20199;-50
2022/07/07 10:57:22;;;;;;;0.43;0.40;;;;;;;;;;5094353;28;20609;-48
2022/07/07 10:59:59;;;;;;;1.83;0.50;;;;;;;;;;5094935;28;20209;-47
2022/07/07 11:02:47;;;;;;;1.15;0.73;;;;;;;;;;5094955;28;20186;-49
2022/07/07 11:05:14;;;;;;;1.08;0.47;;;;;;;;;;5093835;28;20193;-47
2022/07/07 11:07:42;;;;;;;1.20;0.52;;;;;;;;;;5094483;28;20194;-47
2022/07/07 11:10:11;;;;;;;1.98;0.50;;;;;;;;;;5094515;28;20268;-51
2022/07/07 11:12:39;;;;;;;1.50;0.60;;;;;;;;;;5092974;28;20195;-51
2022/07/07 11:15:18;;;;;;;3.65;0.60;;;;;;;;;;5094437;28;20252;-47
2022/07/07 11:17:52;;;;;;;4.40;0.75;;;;;;;;;;5092490;28;20596;-54
2022/07/07 11:20:21;;;;;;;2.33;0.70;;;;;;;;;;5094873;28;20194;-44
2022/07/07 11:22:55;;;;;;;3.05;0.93;;;;;;;;;;5095894;28;20290;-45
2022/07/07 11:25:23;;;;;;;8.07;0.85;;;;;;;;;;5095922;28;20191;-45
2022/07/07 11:27:51;;;;;;;1.67;0.60;;;;;;;;;;5094599;28;20714;-45
2022/07/07 11:30:23;;;;;;;7.63;3.45;;;;;;;;;;5095461;28;20235;-44
2022/07/07 11:32:50;;;;;;;4.07;3.10;;;;;;;;;;5095711;28;20206;-45
2022/07/07 11:35:17;;;;;;;2.15;0.80;;;;;;;;;;5091068;28;20204;-44
2022/07/07 11:37:46;;;;;;;0.70;0.60;;;;;;;;;;5089552;28;20213;-46
2022/07/07 11:40:19;;;;;;;0.73;0.50;;;;;;;;;;5093840;28;20201;-46
2022/07/07 11:42:46;;;;;;;1.45;0.70;;;;;;;;;;5091027;28;20201;-46
2022/07/07 11:45:20;;;;;;;1.83;0.70;;;;;;;;;;5094039;28;20230;-46
2022/07/07 11:47:48;;;;;;;2.15;0.57;;;;;;;;;;5095461;28;20256;-48
2022/07/07 11:50:16;;;;;;;2.08;0.22;;;;;;;;;;5091072;28;20226;-45
2022/07/07 11:52:56;;;;;;;1.58;0.38;;;;;;;;;;5094893;28;20205;-44
2022/07/07 11:55:24;;;;;;;5.40;0.70;;;;;;;;;;5095258;28;20202;-43
2022/07/07 11:57:56;;;;;;;1.42;0.50;;;;;;;;;;5094882;28;20241;-45
2022/07/07 12:00:26;;;;;;;3.03;0.40;;;;;;;;;;5094853;28;20680;-43
2022/07/07 12:02:58;;;;;;;1.30;0.50;;;;;;;;;;5094111;28;20219;-42
2022/07/07 12:05:27;;;;;;;2.80;0.47;;;;;;;;;;5091937;28;20260;-45
2022/07/07 12:07:56;;;;;;;2.67;0.60;;;;;;;;;;5093557;28;20203;-45
2022/07/07 12:10:30;;;;;;;0.70;0.40;;;;;;;;;;5091664;28;20254;-43
2022/07/07 12:12:59;;;;;;;1.20;0.47;;;;;;;;;;5092718;28;20210;-42
2022/07/07 12:15:28;;;;;;;4.72;0.45;;;;;;;;;;5093490;28;20274;-44
2022/07/07 12:17:56;;;;;;;1.80;0.50;;;;;;;;;;5093757;28;20210;-44
2022/07/07 12:20:23;;;;;;;1.52;0.60;;;;;;;;;;5088378;28;20619;-45
2022/07/07 12:22:53;;;;;;;2.78;0.52;;;;;;;;;;5092998;28;20281;-43
2022/07/07 12:25:23;;;;;;;1.85;0.40;;;;;;;;;;5092793;28;20191;-47
2022/07/07 12:28:06;;;;;;;2.60;0.60;;;;;;;;;;5091180;28;20191;-45
2022/07/07 12:30:49;;;;;;;0.40;0.20;;;;;;;;;;5094605;28;20226;-46
2022/07/07 12:33:39;;;;;;;0.82;0.40;;;;;;;;;;5094773;28;20189;-47
2022/07/07 12:36:24;;;;;;;1.63;0.43;;;;;;;;;;5091267;28;20199;-47
2022/07/07 12:38:56;;;;;;;1.17;0.40;;;;;;;;;;5076324;28;20293;-46
2022/07/07 12:41:26;;;;;;;1.55;0.52;;;;;;;;;;5090815;28;20557;-44
2022/07/07 12:43:55;;;;;;;1.02;0.38;;;;;;;;;;5093248;28;20198;-44
2022/07/07 12:46:32;;;;;;;2.90;0.40;;;;;;;;;;5093273;28;20203;-43
2022/07/07 12:49:00;;;;;;;1.73;0.45;;;;;;;;;;5091143;28;20213;-43
2022/07/07 12:51:28;;;;;;;3.28;0.70;;;;;;;;;;5093486;28;20633;-47
2022/07/07 12:53:56;;;;;;;2.75;0.47;;;;;;;;;;5093354;28;20210;-44
2022/07/07 12:56:39;;;;;;;0.88;0.43;;;;;;;;;;5082668;28;20207;-44
2022/07/07 12:59:19;;;;;;;1.95;0.47;;;;;;;;;;5074930;28;20206;-43
2022/07/07 13:01:51;;;;;;;1.38;0.38;;;;;;;;;;5075039;28;20258;-42
2022/07/07 13:04:19;;;;;;;1.23;0.28;;;;;;;;;;5076111;28;20279;-43
2022/07/07 13:06:46;;;;;;;1.65;0.40;;;;;;;;;;5094553;28;20198;-42
2022/07/07 13:09:13;;;;;;;1.23;0.30;;;;;;;;;;5094100;28;20287;-43
2022/07/07 13:12:00;;;;;;;2.83;0.50;;;;;;;;;;5076562;28;20683;-43
2022/07/07 13:14:29;;;;;;;1.02;0.35;;;;;;;;;;5083860;28;20276;-44
2022/07/07 13:16:56;;;;;;;1.30;0.50;;;;;;;;;;5076522;28;20223;-43
2022/07/07 13:19:23;;;;;;;2.58;0.50;;;;;;;;;;5080564;28;20641;-44
2022/07/07 13:21:50;;;;;;;0.80;0.40;;;;;;;;;;5090677;28;20594;-45
2022/07/07 13:24:17;;;;;;;2.20;0.47;;;;;;;;;;5093039;28;20319;-44
2022/07/07 13:26:44;;;;;;;0.85;0.25;;;;;;;;;;5092680;28;20666;-43
2022/07/07 13:29:11;;;;;;;1.80;0.30;;;;;;;;;;5089705;28;20234;-49
2022/07/07 13:31:41;;;;;;;1.02;0.70;;;;;;;;;;5090850;28;20219;-44
2022/07/07 13:34:12;;;;;;;0.65;0.30;;;;;;;;;;5091868;28;20679;-48
2022/07/07 13:36:39;;;;;;;0.95;0.35;;;;;;;;;;5090102;28;20684;-43
2022/07/07 13:39:06;;;;;;;0.70;0.30;;;;;;;;;;5095211;28;20222;-46
2022/07/07 13:41:33;;;;;;;1.75;0.50;;;;;;;;;;5094026;28;20215;-51
2022/07/07 13:44:02;;;;;;;0.98;0.30;;;;;;;;;;5091110;28;20219;-49
2022/07/07 13:46:30;;;;;;;0.93;0.50;;;;;;;;;;5085785;28;20219;-46
2022/07/07 13:48:57;;;;;;;1.67;0.52;;;;;;;;;;5086845;28;20242;-46
2022/07/07 13:51:25;;;;;;;1.88;0.50;;;;;;;;;;5081397;28;20226;-44
2022/07/07 13:53:52;;;;;;;0.57;0.40;;;;;;;;;;5077933;28;20245;-43
2022/07/07 13:56:39;;;;;;;0.38;0.30;;;;;;;;;;5075844;28;20234;-43
2022/07/07 13:59:06;;;;;;;1.50;0.60;;;;;;;;;;5086964;28;20559;-46
2022/07/07 14:01:34;;;;;;;0.88;0.32;;;;;;;;;;5096692;28;20244;-46
2022/07/07 14:04:02;;;;;;;3.10;0.40;;;;;;;;;;5096849;28;20276;-40
2022/07/07 14:06:30;;;;;;;1.63;0.52;;;;;;;;;;5082990;28;20288;-46
2022/07/07 14:08:57;;;;;;;1.92;0.63;;;;;;;;;;5076096;28;20625;-43
2022/07/07 14:11:24;;;;;;;1.85;0.55;;;;;;;;;;5078758;28;20572;-45
2022/07/07 14:13:51;;;;;;;0.90;0.43;;;;;;;;;;5095808;28;20226;-47
2022/07/07 14:16:25;;;;;;;0.85;0.52;;;;;;;;;;5075662;28;20300;-45
2022/07/07 14:18:52;;;;;;;0.82;0.40;;;;;;;;;;5078286;28;20223;-44
2022/07/07 14:21:19;;;;;;;1.10;0.45;;;;;;;;;;5075560;28;20669;-44
2022/07/07 14:23:46;;;;;;;0.98;0.50;;;;;;;;;;5076116;28;20235;-43
2022/07/07 14:26:13;;;;;;;1.52;0.65;;;;;;;;;;5075753;28;20235;-51
2022/07/07 14:28:40;;;;;;;1.98;0.70;;;;;;;;;;5097908;28;20669;-47
2022/07/07 14:31:07;;;;;;;2.88;1.30;;;;;;;;;;5095991;28;20291;-48
2022/07/07 14:33:34;;;;;;;1.92;0.50;;;;;;;;;;5095886;28;20238;-44
2022/07/07 14:36:01;;;;;;;1.65;0.50;;;;;;;;;;5096031;28;20287;-49
2022/07/07 14:38:29;;;;;;;0.57;0.50;;;;;;;;;;5091850;28;20668;-43
2022/07/07 14:40:56;;;;;;;1.95;0.65;;;;;;;;;;5074846;28;20231;-42
2022/07/07 14:43:23;;;;;;;1.65;0.50;;;;;;;;;;5074457;28;20720;-43
2022/07/07 14:45:57;;;;;;;0.60;0.30;;;;;;;;;;5089907;28;20231;-43
2022/07/07 14:48:24;;;;;;;3.80;0.68;;;;;;;;;;5079546;28;20227;-45
2022/07/07 14:50:51;;;;;;;6.28;1.15;;;;;;;;;;5095078;28;20238;-44
2022/07/07 14:53:18;;;;;;;1.88;0.60;;;;;;;;;;5095804;28;20234;-44
2022/07/07 14:55:45;;;;;;;2.15;0.70;;;;;;;;;;5094804;28;20248;-46
2022/07/07 14:58:16;;;;;;;5.35;0.90;;;;;;;;;;5094961;28;20218;-44
2022/07/07 15:00:43;;;;;;;3.38;1.10;;;;;;;;;;5095591;28;20223;-46